Time;durP1;ratioP1;P1;durP2;ratioP2;P2;SDS_P1;SDS_P2;PMS_P1;PMS_P2;Temp;Humidity;BMP_temperature;BMP_pressure;BME280_temperature;BME280_humidity;BME280_pressure;Samples;Min_cycle;Max_cycle;Signal;HPM_P1;HPM_P2
2021/09/22 00:00:21;;;;;;;6.20;3.45;;;;;;;18.62;42.83;102754.94;4993494;28;20137;-62
2021/09/22 00:02:47;;;;;;;6.10;3.38;;;;;;;18.60;43.34;102758.63;4995678;28;20058;-63
2021/09/22 00:05:13;;;;;;;6.68;3.72;;;;;;;18.55;43.54;102758.19;4994351;28;20073;-62
2021/09/22 00:07:38;;;;;;;8.88;3.80;;;;;;;18.55;44.01;102754.59;4995615;28;20034;-62
2021/09/22 00:10:06;;;;;;;5.35;2.97;;;;;;;18.53;43.40;102756.59;4995316;28;20029;-63
2021/09/22 00:12:31;;;;;;;4.50;3.35;;;;;;;18.50;43.15;102751.44;4995696;28;20026;-63
2021/09/22 00:14:57;;;;;;;8.27;3.30;;;;;;;18.45;43.43;102749.06;4995597;28;20034;-63
2021/09/22 00:17:22;;;;;;;6.72;2.72;;;;;;;18.42;43.43;102753.91;5010634;28;20562;-62
2021/09/22 00:19:48;;;;;;;4.53;2.72;;;;;;;18.44;44.00;102757.34;4993856;28;20106;-62
2021/09/22 00:22:13;;;;;;;4.28;2.70;;;;;;;18.42;43.58;102751.22;4993648;28;20038;-62
2021/09/22 00:24:38;;;;;;;5.00;2.95;;;;;;;18.41;42.96;102746.75;4995369;28;20026;-62
2021/09/22 00:27:04;;;;;;;6.97;3.55;;;;;;;18.39;43.67;102746.91;5010656;28;20076;-63
2021/09/22 00:29:29;;;;;;;7.45;2.90;;;;;;;18.35;43.49;102752.72;4995016;28;20030;-62
2021/09/22 00:31:54;;;;;;;3.30;2.53;;;;;;;18.36;43.86;102747.16;4995203;28;20049;-62
2021/09/22 00:34:20;;;;;;;8.50;3.63;;;;;;;18.34;42.99;102742.88;4995666;28;20058;-62
2021/09/22 00:36:46;;;;;;;5.82;2.90;;;;;;;18.31;43.42;102746.72;4995553;28;20044;-62
2021/09/22 00:39:11;;;;;;;3.97;2.92;;;;;;;18.30;44.05;102744.13;4995524;28;20037;-62
2021/09/22 00:41:37;;;;;;;6.25;3.13;;;;;;;18.29;43.72;102742.38;4993647;28;20455;-63
2021/09/22 00:44:03;;;;;;;5.05;2.90;;;;;;;18.26;44.48;102743.50;4993345;28;20026;-62
2021/09/22 00:46:28;;;;;;;5.15;3.35;;;;;;;18.27;44.34;102749.81;4995609;28;20077;-62
2021/09/22 00:48:54;;;;;;;4.20;3.13;;;;;;;18.23;43.71;102737.50;4994925;28;20124;-62
2021/09/22 00:51:20;;;;;;;5.93;3.03;;;;;;;18.26;43.71;102742.66;4995149;28;20030;-62
2021/09/22 00:53:45;;;;;;;5.47;3.05;;;;;;;18.25;43.20;102741.81;4994848;28;20506;-62
2021/09/22 00:56:10;;;;;;;6.25;3.60;;;;;;;18.26;43.25;102743.50;5010283;28;20030;-62
2021/09/22 00:58:36;;;;;;;12.27;3.65;;;;;;;18.25;44.01;102746.38;4994779;28;20382;-62
2021/09/22 01:01:03;;;;;;;6.30;4.13;;;;;;;18.25;43.99;102751.78;4992400;28;20061;-62
2021/09/22 01:03:28;;;;;;;9.40;3.88;;;;;;;18.25;43.55;102751.78;4995069;28;20065;-62
2021/09/22 01:05:54;;;;;;;4.80;3.20;;;;;;;18.24;43.87;102752.78;5010368;28;20031;-63
2021/09/22 01:08:20;;;;;;;5.22;3.28;;;;;;;18.20;43.97;102756.75;4993266;28;20038;-62
2021/09/22 01:10:47;;;;;;;5.60;3.35;;;;;;;18.18;44.31;102761.44;4994864;28;20106;-62
2021/09/22 01:13:13;;;;;;;5.93;3.45;;;;;;;18.15;44.51;102767.13;4994843;28;20022;-62
2021/09/22 01:15:42;;;;;;;4.78;2.58;;;;;;;18.12;44.37;102762.81;4994836;28;20030;-63
2021/09/22 01:18:12;;;;;;;4.80;3.83;;;;;;;18.08;43.64;102763.22;4994385;28;20037;-63
2021/09/22 01:20:38;;;;;;;5.65;3.38;;;;;;;18.09;43.23;102767.66;4977506;28;20073;-62
2021/09/22 01:23:05;;;;;;;8.15;2.67;;;;;;;18.06;43.46;102766.09;4994719;28;20031;-62
2021/09/22 01:25:30;;;;;;;4.32;2.75;;;;;;;18.04;44.27;102765.31;4993265;28;20033;-62
2021/09/22 01:27:59;;;;;;;3.40;1.95;;;;;;;18.01;44.88;102771.88;4993473;28;20379;-62
2021/09/22 01:30:26;;;;;;;3.75;2.70;;;;;;;17.97;43.33;102770.44;4992873;28;20494;-62
2021/09/22 01:33:00;;;;;;;5.88;3.42;;;;;;;17.91;44.06;102759.22;4995017;28;20065;-62
2021/09/22 01:35:32;;;;;;;9.43;3.22;;;;;;;17.93;44.78;102763.53;4993431;28;20038;-62
2021/09/22 01:37:57;;;;;;;3.83;2.47;;;;;;;17.91;43.95;102765.53;4993291;28;20018;-62
2021/09/22 01:40:23;;;;;;;5.93;3.10;;;;;;;17.89;44.18;102769.34;4994245;28;20018;-62
2021/09/22 01:42:48;;;;;;;6.32;3.40;;;;;;;17.89;44.60;102767.50;4994607;28;20110;-62
2021/09/22 01:45:15;;;;;;;6.82;4.10;;;;;;;17.86;43.97;102756.91;4994466;28;20019;-62
2021/09/22 01:47:41;;;;;;;6.55;4.18;;;;;;;17.88;44.27;102765.78;4993309;28;20116;-62
2021/09/22 01:50:18;;;;;;;6.25;3.25;;;;;;;17.87;44.79;102757.75;4993425;28;20510;-62
2021/09/22 01:52:46;;;;;;;8.63;3.17;;;;;;;17.86;44.09;102759.63;4994747;28;20034;-63
2021/09/22 01:55:12;;;;;;;6.32;3.00;;;;;;;17.85;43.48;102760.63;4997286;28;20027;-63
2021/09/22 01:57:38;;;;;;;5.00;3.08;;;;;;;17.84;44.64;102758.88;4998375;28;20030;-62
2021/09/22 02:00:05;;;;;;;6.38;2.65;;;;;;;17.82;43.74;102760.88;4997899;28;20026;-62
2021/09/22 02:02:31;;;;;;;3.25;1.88;;;;;;;17.81;44.37;102758.28;5013937;28;20057;-62
2021/09/22 02:04:56;;;;;;;3.83;1.30;;;;;;;17.76;44.39;102744.25;5016890;28;20040;-62
2021/09/22 02:07:22;;;;;;;3.53;1.98;;;;;;;17.73;43.93;102745.38;5016085;28;20026;-63
2021/09/22 02:09:47;;;;;;;4.60;2.40;;;;;;;17.70;44.67;102734.78;5017344;28;20021;-62
2021/09/22 02:12:12;;;;;;;5.30;2.78;;;;;;;17.63;43.92;102733.59;5017056;28;20029;-62
2021/09/22 02:14:38;;;;;;;5.03;2.53;;;;;;;17.62;44.13;102737.28;5017492;28;20021;-62
2021/09/22 02:17:03;;;;;;;5.13;2.83;;;;;;;17.57;43.46;102734.09;5017069;28;20049;-62
2021/09/22 02:19:29;;;;;;;3.90;2.55;;;;;;;17.58;43.98;102735.81;5017267;28;20037;-62
2021/09/22 02:21:55;;;;;;;5.28;2.97;;;;;;;17.55;44.07;102738.78;4982796;28;20483;-62
2021/09/22 02:24:20;;;;;;;6.18;3.20;;;;;;;17.53;44.66;102729.91;4999718;28;20025;-62
2021/09/22 02:26:45;;;;;;;8.25;2.67;;;;;;;17.52;45.20;102736.28;5016799;28;20375;-62
2021/09/22 02:29:11;;;;;;;3.80;2.30;;;;;;;17.52;44.97;102733.59;5016818;28;20030;-62
2021/09/22 02:31:36;;;;;;;5.35;2.63;;;;;;;17.50;45.01;102743.69;5017057;28;20484;-62
2021/09/22 02:34:02;;;;;;;4.38;3.00;;;;;;;17.46;44.93;102737.66;5016865;28;20032;-62
2021/09/22 02:36:27;;;;;;;4.53;2.83;;;;;;;17.46;44.87;102736.78;5016774;28;20025;-62
2021/09/22 02:38:53;;;;;;;5.18;2.25;;;;;;;17.41;44.09;102733.63;5016803;28;20033;-62
2021/09/22 02:41:18;;;;;;;3.88;2.10;;;;;;;17.41;45.42;102741.75;5017320;28;20030;-62
2021/09/22 02:43:44;;;;;;;3.38;2.38;;;;;;;17.39;44.90;102741.84;5017069;28;20053;-62
2021/09/22 02:46:10;;;;;;;6.15;3.70;;;;;;;17.38;43.82;102739.28;4999413;28;20028;-62
2021/09/22 02:48:35;;;;;;;3.63;2.42;;;;;;;17.36;44.05;102741.28;5016379;28;20112;-62
2021/09/22 02:51:00;;;;;;;6.25;3.53;;;;;;;17.35;45.14;102744.94;4999439;28;20033;-62
2021/09/22 02:53:26;;;;;;;6.97;3.55;;;;;;;17.33;45.36;102730.69;4999012;28;20029;-62
2021/09/22 02:55:51;;;;;;;5.45;2.72;;;;;;;17.31;44.12;102732.63;4998954;28;20022;-62
2021/09/22 02:58:16;;;;;;;3.80;1.83;;;;;;;17.26;45.33;102729.44;5016543;28;20360;-62
2021/09/22 03:00:42;;;;;;;3.83;2.47;;;;;;;17.28;44.32;102738.34;4998434;28;20026;-62
2021/09/22 03:03:08;;;;;;;3.92;2.78;;;;;;;17.26;43.81;102740.28;4998392;28;20030;-62
2021/09/22 03:05:33;;;;;;;8.30;3.20;;;;;;;17.24;44.37;102731.44;5015536;28;20030;-62
2021/09/22 03:07:58;;;;;;;9.07;2.00;;;;;;;17.22;44.20;102728.00;4998505;28;20038;-62
2021/09/22 03:10:24;;;;;;;2.30;1.80;;;;;;;17.19;43.72;102720.97;5016119;28;20025;-62
2021/09/22 03:12:49;;;;;;;7.40;2.42;;;;;;;17.18;44.99;102721.09;5015838;28;20072;-62
2021/09/22 03:15:16;;;;;;;6.20;3.20;;;;;;;17.15;44.24;102722.22;5015878;28;20101;-62
2021/09/22 03:17:41;;;;;;;6.43;2.97;;;;;;;17.13;44.29;102713.34;5015790;28;20513;-62
2021/09/22 03:20:07;;;;;;;2.53;1.77;;;;;;;17.11;45.17;102714.47;5015745;28;20066;-62
2021/09/22 03:22:33;;;;;;;3.20;1.52;;;;;;;17.08;44.80;102720.13;5015109;28;20029;-62
2021/09/22 03:24:58;;;;;;;4.20;2.42;;;;;;;17.03;45.60;102706.13;5015476;28;20030;-62
2021/09/22 03:27:24;;;;;;;3.47;2.50;;;;;;;16.99;44.47;102704.63;4997914;28;20068;-62
2021/09/22 03:29:49;;;;;;;2.65;1.98;;;;;;;17.00;45.50;102714.50;5015505;28;20021;-62
2021/09/22 03:32:15;;;;;;;5.47;2.47;;;;;;;16.97;44.37;102712.88;4997967;28;20437;-62
2021/09/22 03:34:40;;;;;;;2.97;2.20;;;;;;;16.95;44.71;102708.56;4998025;28;20045;-62
2021/09/22 03:37:05;;;;;;;3.70;2.30;;;;;;;16.95;45.54;102697.72;4998108;28;20026;-62
2021/09/22 03:39:31;;;;;;;5.30;2.50;;;;;;;16.93;43.92;102695.16;5015101;28;20034;-62
2021/09/22 03:41:56;;;;;;;2.88;2.20;;;;;;;16.93;44.48;102699.72;4997884;28;20402;-62
2021/09/22 03:44:22;;;;;;;4.97;2.58;;;;;;;16.91;44.37;102701.69;5015284;28;20025;-62
2021/09/22 03:46:47;;;;;;;5.30;3.10;;;;;;;16.89;44.94;102696.38;5014906;28;20026;-62
2021/09/22 03:49:13;;;;;;;4.80;3.15;;;;;;;16.87;45.15;102696.53;5015130;28;20018;-63
2021/09/22 03:51:38;;;;;;;8.98;4.10;;;;;;;16.91;45.60;102705.25;4998026;28;20026;-62
2021/09/22 03:54:04;;;;;;;5.20;3.55;;;;;;;16.89;45.19;102701.78;4997609;28;20026;-62
2021/09/22 03:56:29;;;;;;;5.20;3.55;;;;;;;16.89;45.30;102694.53;5015031;28;20028;-63
2021/09/22 03:58:54;;;;;;;4.95;2.75;;;;;;;16.89;45.53;102694.53;5014898;28;20061;-62
2021/09/22 04:01:20;;;;;;;3.72;2.05;;;;;;;16.88;44.79;102698.25;5015062;28;20084;-63
2021/09/22 04:03:45;;;;;;;1.83;1.48;;;;;;;16.88;44.06;102698.25;5014879;28;20026;-62
2021/09/22 04:06:10;;;;;;;4.90;1.67;;;;;;;16.85;44.36;102701.19;4997466;28;20446;-62
2021/09/22 04:08:36;;;;;;;2.90;2.17;;;;;;;16.82;45.19;102704.16;5015356;28;20459;-62
2021/09/22 04:11:01;;;;;;;4.22;2.58;;;;;;;16.78;45.22;102702.66;5014751;28;20029;-62
2021/09/22 04:13:26;;;;;;;7.22;3.00;;;;;;;16.78;45.38;102701.81;5014672;28;20058;-62
2021/09/22 04:15:52;;;;;;;7.40;3.05;;;;;;;16.77;45.60;102703.66;5014504;28;20068;-62
2021/09/22 04:18:17;;;;;;;4.90;2.90;;;;;;;16.78;44.29;102712.63;5013687;28;20079;-62
2021/09/22 04:20:43;;;;;;;5.07;3.50;;;;;;;16.77;44.67;102702.81;5014610;28;20029;-62
2021/09/22 04:23:08;;;;;;;3.83;2.72;;;;;;;16.77;44.57;102703.66;5014224;28;20035;-62
2021/09/22 04:25:33;;;;;;;2.75;2.00;;;;;;;16.76;44.46;102704.66;5014387;28;20503;-62
2021/09/22 04:27:59;;;;;;;2.85;2.13;;;;;;;16.75;45.43;102700.19;5014255;28;20030;-62
2021/09/22 04:30:24;;;;;;;5.00;2.85;;;;;;;16.73;44.19;102699.47;5014218;28;20040;-63
2021/09/22 04:32:50;;;;;;;4.70;2.13;;;;;;;16.67;44.36;102678.31;4997189;28;20041;-62
2021/09/22 04:35:15;;;;;;;4.30;2.97;;;;;;;16.69;44.58;102692.59;5014176;28;20489;-62
2021/09/22 04:37:41;;;;;;;5.15;3.17;;;;;;;16.67;44.91;102694.53;4997178;28;20022;-62
2021/09/22 04:40:10;;;;;;;4.15;2.80;;;;;;;16.66;45.83;102690.13;4997358;28;20018;-62
2021/09/22 04:42:35;;;;;;;4.68;2.65;;;;;;;16.51;45.19;102664.25;4997135;28;20415;-62
2021/09/22 04:45:01;;;;;;;7.00;3.60;;;;;;;16.65;45.36;102691.13;5014135;28;20164;-63
2021/09/22 04:47:27;;;;;;;5.10;3.60;;;;;;;16.62;44.60;102685.94;4996877;28;20474;-62
2021/09/22 04:49:54;;;;;;;7.60;3.03;;;;;;;16.65;45.81;102688.41;4980999;28;20104;-62
2021/09/22 04:52:20;;;;;;;5.32;2.42;;;;;;;16.65;45.42;102687.53;5014043;28;20026;-63
2021/09/22 04:54:45;;;;;;;3.95;2.65;;;;;;;16.57;45.70;102680.03;5014154;28;20022;-62
2021/09/22 04:57:10;;;;;;;5.70;2.53;;;;;;;16.63;45.90;102703.03;5014806;28;20459;-62
2021/09/22 04:59:36;;;;;;;5.32;2.28;;;;;;;16.62;45.52;102704.03;5014507;28;20042;-62
2021/09/22 05:02:01;;;;;;;3.03;2.45;;;;;;;16.56;44.80;102691.84;5014163;28;20052;-62
2021/09/22 05:04:26;;;;;;;6.60;3.08;;;;;;;16.60;44.84;102711.41;4996351;28;20032;-62
2021/09/22 05:06:52;;;;;;;4.78;3.17;;;;;;;16.56;45.17;102702.66;5014291;28;20109;-62
2021/09/22 05:09:17;;;;;;;5.60;3.13;;;;;;;16.54;45.45;102699.22;4996818;28;20057;-62
2021/09/22 05:11:43;;;;;;;16.38;3.60;;;;;;;16.58;45.92;102714.22;4997200;28;20038;-62
2021/09/22 05:14:09;;;;;;;4.28;2.72;;;;;;;16.58;44.63;102716.09;4994522;28;20026;-62
2021/09/22 05:16:34;;;;;;;5.50;3.30;;;;;;;16.57;45.40;102709.81;4971051;28;20023;-62
2021/09/22 05:18:59;;;;;;;3.58;2.30;;;;;;;16.56;44.94;102718.91;4975036;28;20416;-62
2021/09/22 05:21:25;;;;;;;5.97;3.33;;;;;;;16.54;45.38;102720.88;4974741;28;20395;-62
2021/09/22 05:23:50;;;;;;;7.43;4.22;;;;;;;16.41;45.80;102703.88;4969378;28;20064;-61
2021/09/22 05:26:15;;;;;;;4.72;3.00;;;;;;;16.49;45.08;102727.59;4976083;28;20054;-62
2021/09/22 05:28:41;;;;;;;5.25;3.25;;;;;;;16.48;44.73;102732.13;4995363;28;20058;-62
2021/09/22 05:31:06;;;;;;;6.55;3.72;;;;;;;16.46;45.41;102730.53;4998066;28;20022;-61
2021/09/22 05:33:31;;;;;;;9.07;4.90;;;;;;;16.41;44.48;102720.09;4997901;28;20033;-62
2021/09/22 05:35:57;;;;;;;7.43;3.80;;;;;;;16.43;45.31;102723.53;4997961;28;20046;-61
2021/09/22 05:38:22;;;;;;;6.00;3.30;;;;;;;16.42;45.62;102732.63;4997808;28;20089;-61
2021/09/22 05:40:49;;;;;;;8.43;3.78;;;;;;;16.42;45.87;102735.31;4998262;28;20411;-61
2021/09/22 05:43:14;;;;;;;9.45;4.25;;;;;;;16.40;44.78;102729.19;4998039;28;20023;-63
2021/09/22 05:45:39;;;;;;;7.88;3.88;;;;;;;16.44;45.35;102736.09;4997913;28;20030;-62
2021/09/22 05:48:05;;;;;;;6.80;3.88;;;;;;;16.47;44.75;102737.69;4997995;28;20022;-62
2021/09/22 05:50:31;;;;;;;10.35;4.13;;;;;;;16.48;46.10;102742.97;4997302;28;20030;-66
2021/09/22 05:52:56;;;;;;;7.65;4.28;;;;;;;16.52;46.07;102744.47;4980235;28;20161;-62
2021/09/22 05:55:21;;;;;;;8.82;4.07;;;;;;;16.55;44.58;102738.84;4997815;28;20110;-62
2021/09/22 05:57:47;;;;;;;8.32;5.28;;;;;;;16.59;45.05;102745.72;4964398;28;20034;-62
2021/09/22 06:00:13;;;;;;;8.18;4.30;;;;;;;16.61;44.48;102735.63;4997490;28;20123;-62
2021/09/22 06:02:38;;;;;;;11.15;5.15;;;;;;;16.67;45.48;102748.66;4997099;28;20084;-62
2021/09/22 06:05:04;;;;;;;9.18;5.57;;;;;;;16.67;45.51;102740.56;4997746;28;20069;-63
2021/09/22 06:07:31;;;;;;;9.65;4.72;;;;;;;16.77;46.10;102749.69;4997622;28;20379;-62
2021/09/22 06:09:56;;;;;;;8.45;3.97;;;;;;;16.83;44.76;102754.59;4997558;28;20109;-62
2021/09/22 06:12:21;;;;;;;12.10;4.95;;;;;;;16.87;44.80;102756.06;4997419;28;20061;-62
2021/09/22 06:14:47;;;;;;;7.38;4.05;;;;;;;16.92;45.87;102747.56;4997303;28;20045;-62
2021/09/22 06:17:12;;;;;;;10.82;4.55;;;;;;;17.01;46.13;102751.38;4997436;28;20026;-62
2021/09/22 06:19:37;;;;;;;9.45;4.78;;;;;;;17.10;46.18;102761.47;4997165;28;20030;-62
2021/09/22 06:22:03;;;;;;;9.38;5.15;;;;;;;17.17;44.83;102757.31;4995691;28;20026;-62
2021/09/22 06:24:28;;;;;;;9.63;4.53;;;;;;;17.25;45.45;102761.09;4997509;28;20029;-62
2021/09/22 06:26:55;;;;;;;8.15;4.70;;;;;;;17.36;45.27;102765.66;4997070;28;20033;-62
2021/09/22 06:29:21;;;;;;;8.98;4.93;;;;;;;17.41;44.75;102760.72;4997275;28;20053;-62
2021/09/22 06:31:46;;;;;;;13.63;4.90;;;;;;;17.56;44.30;102770.31;4996084;28;20030;-62
2021/09/22 06:34:11;;;;;;;12.30;5.82;;;;;;;17.66;44.84;102771.28;4995767;28;20022;-62
2021/09/22 06:36:37;;;;;;;10.95;5.88;;;;;;;17.77;45.08;102773.94;4997493;28;20026;-62
2021/09/22 06:39:03;;;;;;;7.65;5.25;;;;;;;17.87;45.18;102769.47;4996918;28;20039;-62
2021/09/22 06:41:30;;;;;;;14.13;6.03;;;;;;;17.97;45.11;102761.44;4995754;28;20029;-62
2021/09/22 06:43:56;;;;;;;9.65;5.20;;;;;;;18.08;45.26;102765.94;4995623;28;20029;-62
2021/09/22 06:46:21;;;;;;;17.27;5.75;;;;;;;18.17;45.38;102762.44;4996159;28;20045;-62
2021/09/22 06:48:47;;;;;;;10.30;5.85;;;;;;;18.33;45.17;102762.84;4996664;28;20030;-62
2021/09/22 06:51:16;;;;;;;15.95;6.30;;;;;;;18.46;45.32;102763.50;4995794;28;20026;-62
2021/09/22 06:53:42;;;;;;;10.00;5.80;;;;;;;18.60;45.00;102765.91;4996755;28;20161;-62
2021/09/22 06:56:07;;;;;;;10.68;5.55;;;;;;;18.75;44.30;102761.00;4996797;28;20097;-62
2021/09/22 06:58:32;;;;;;;12.10;5.05;;;;;;;18.89;44.77;102761.50;4997182;28;20037;-62
2021/09/22 07:00:58;;;;;;;11.15;5.78;;;;;;;18.99;44.77;102753.38;4995742;28;20053;-62
2021/09/22 07:03:23;;;;;;;15.32;6.70;;;;;;;19.04;45.30;102749.25;4997444;28;20026;-63
2021/09/22 07:05:49;;;;;;;10.80;5.35;;;;;;;19.22;44.64;102754.91;4997455;28;20065;-62
2021/09/22 07:08:14;;;;;;;13.25;6.20;;;;;;;19.35;44.63;102752.78;4997767;28;20463;-62
2021/09/22 07:10:40;;;;;;;13.23;6.88;;;;;;;19.53;44.56;102751.16;4997542;28;20467;-62
2021/09/22 07:13:06;;;;;;;17.83;6.65;;;;;;;19.70;44.52;102750.47;4997165;28;20030;-62
2021/09/22 07:15:32;;;;;;;10.55;5.95;;;;;;;19.90;44.25;102745.91;4996162;28;20026;-63
2021/09/22 07:17:57;;;;;;;11.77;5.57;;;;;;;20.14;44.28;102749.03;5012207;28;20104;-62
2021/09/22 07:20:23;;;;;;;10.20;5.55;;;;;;;20.36;44.47;102744.31;4995330;28;20109;-62
2021/09/22 07:22:48;;;;;;;14.30;6.55;;;;;;;20.56;44.36;102754.16;4995939;28;20022;-63
2021/09/22 07:25:14;;;;;;;12.65;6.35;;;;;;;20.72;43.91;102748.94;4996579;28;20036;-62
2021/09/22 07:27:39;;;;;;;12.35;6.05;;;;;;;20.86;43.57;102746.59;4997066;28;20049;-62
2021/09/22 07:30:06;;;;;;;14.35;6.07;;;;;;;20.96;44.12;102749.31;4995247;28;20061;-63
2021/09/22 07:32:32;;;;;;;14.07;6.50;;;;;;;21.08;43.91;102750.84;4995521;28;20037;-62
2021/09/22 07:34:57;;;;;;;15.32;6.93;;;;;;;21.22;43.57;102746.75;4995235;28;20394;-62
2021/09/22 07:37:24;;;;;;;13.93;6.47;;;;;;;21.36;43.44;102741.66;4996008;28;20029;-62
2021/09/22 07:39:49;;;;;;;13.98;6.82;;;;;;;21.59;43.01;102749.41;4994727;28;20491;-62
2021/09/22 07:42:15;;;;;;;16.73;6.82;;;;;;;21.72;43.59;102749.91;4993847;28;20153;-62
2021/09/22 07:44:43;;;;;;;12.45;6.65;;;;;;;21.81;42.74;102748.94;4994195;28;20506;-62
2021/09/22 07:47:08;;;;;;;15.55;7.57;;;;;;;21.92;42.67;102735.09;4995271;28;20028;-63
2021/09/22 07:49:34;;;;;;;14.85;7.47;;;;;;;22.08;42.57;102738.00;4993604;28;20018;-63
2021/09/22 07:51:59;;;;;;;12.90;7.00;;;;;;;22.25;42.47;102737.09;4994564;28;20153;-63
2021/09/22 07:54:25;;;;;;;10.15;6.38;;;;;;;22.34;42.79;102740.75;4995040;28;20030;-63
2021/09/22 07:56:50;;;;;;;14.98;7.80;;;;;;;22.41;42.13;102733.66;4995068;28;20033;-63
2021/09/22 07:59:16;;;;;;;13.68;7.38;;;;;;;22.66;41.65;102748.34;4977709;28;20052;-63
2021/09/22 08:01:41;;;;;;;17.75;6.15;;;;;;;22.90;41.33;102753.94;4993473;28;20132;-63
2021/09/22 08:04:06;;;;;;;15.20;7.32;;;;;;;23.05;42.12;102746.88;4995304;28;20058;-62
2021/09/22 08:06:32;;;;;;;17.70;7.28;;;;;;;23.15;41.69;102748.44;4995192;28;20039;-63
2021/09/22 08:08:57;;;;;;;13.50;7.90;;;;;;;23.33;41.53;102744.75;4995520;28;20029;-63
2021/09/22 08:11:23;;;;;;;16.08;7.10;;;;;;;23.58;41.03;102752.91;4994606;28;20030;-64
2021/09/22 08:13:48;;;;;;;13.10;7.18;;;;;;;23.78;40.63;102740.59;4993243;28;20030;-63
2021/09/22 08:16:13;;;;;;;14.68;6.28;;;;;;;23.95;41.12;102746.13;4994460;28;20018;-63
2021/09/22 08:18:43;;;;;;;11.15;6.38;;;;;;;24.05;41.09;102749.53;4994727;28;20427;-63
2021/09/22 08:21:08;;;;;;;16.83;7.20;;;;;;;24.19;40.28;102759.84;4994377;28;20026;-64
2021/09/22 08:23:34;;;;;;;9.93;6.45;;;;;;;24.30;40.47;102754.03;4978157;28;20088;-62
2021/09/22 08:25:59;;;;;;;14.60;6.30;;;;;;;24.39;40.13;102739.31;4995127;28;20033;-63
2021/09/22 08:28:24;;;;;;;13.48;7.38;;;;;;;24.51;39.91;102753.50;4995231;28;20406;-63
2021/09/22 08:30:50;;;;;;;15.73;7.15;;;;;;;24.58;40.51;102755.38;4993146;28;20018;-63
2021/09/22 08:33:16;;;;;;;16.02;7.43;;;;;;;24.65;40.67;102750.06;4992981;28;20057;-62
2021/09/22 08:35:41;;;;;;;13.20;6.95;;;;;;;24.76;39.69;102753.25;4994431;28;20030;-62
2021/09/22 08:38:06;;;;;;;11.48;6.63;;;;;;;24.88;39.55;102751.03;4994946;28;20022;-62
2021/09/22 08:40:32;;;;;;;16.60;7.95;;;;;;;25.00;40.05;102754.25;4993803;28;20533;-62
2021/09/22 08:42:58;;;;;;;11.68;7.75;;;;;;;25.12;39.63;102752.84;4994213;28;20027;-62
2021/09/22 08:45:24;;;;;;;12.07;8.18;;;;;;;25.24;39.29;102752.25;4993225;28;20482;-62
2021/09/22 08:47:49;;;;;;;13.57;7.32;;;;;;;25.38;39.50;102747.91;4994123;28;20022;-62
2021/09/22 08:50:18;;;;;;;18.13;8.38;;;;;;;25.57;38.88;102747.53;4994145;28;20076;-62
2021/09/22 08:52:44;;;;;;;15.93;7.63;;;;;;;25.75;38.65;102733.47;4994189;28;20023;-62
2021/09/22 08:55:11;;;;;;;15.00;7.53;;;;;;;25.91;38.70;102727.88;4994288;28;20153;-62
2021/09/22 08:57:36;;;;;;;15.07;7.85;;;;;;;26.10;38.28;102737.53;4994047;28;20026;-62
2021/09/22 09:00:04;;;;;;;15.65;7.00;;;;;;;26.22;38.44;102731.41;4994120;28;20045;-62
2021/09/22 09:02:40;;;;;;;11.82;6.65;;;;;;;26.48;38.01;102731.00;4993417;28;20104;-62
2021/09/22 09:05:09;;;;;;;14.98;8.20;;;;;;;26.74;37.62;102730.56;4998157;28;20418;-62
2021/09/22 09:07:35;;;;;;;16.65;7.75;;;;;;;26.97;37.19;102726.69;5002015;28;20086;-62
2021/09/22 09:10:06;;;;;;;11.98;7.07;;;;;;;27.16;37.14;102731.59;4997894;28;20065;-62
2021/09/22 09:12:32;;;;;;;14.88;8.18;;;;;;;27.39;37.63;102736.09;5001082;28;20442;-62
2021/09/22 09:15:00;;;;;;;13.02;7.57;;;;;;;27.55;36.89;102731.28;4997875;28;20026;-62
2021/09/22 09:17:44;;;;;;;15.68;8.38;;;;;;;27.53;36.68;102732.50;4998508;28;20031;-61
2021/09/22 09:20:24;;;;;;;15.75;7.85;;;;;;;27.59;36.70;102737.25;4999840;28;20022;-62
2021/09/22 09:23:02;;;;;;;20.73;9.07;;;;;;;27.71;36.73;102732.94;4997324;28;20022;-62
2021/09/22 09:25:32;;;;;;;14.77;8.38;;;;;;;27.81;36.97;102730.69;4997970;28;20054;-62
2021/09/22 09:27:58;;;;;;;21.52;8.73;;;;;;;27.99;36.23;102725.59;4997837;28;20019;-62
2021/09/22 09:30:26;;;;;;;14.48;8.88;;;;;;;28.27;36.40;102721.00;4996516;28;20026;-62
2021/09/22 09:32:52;;;;;;;18.08;9.98;;;;;;;28.76;36.06;102725.59;4999917;28;20430;-62
2021/09/22 09:35:20;;;;;;;17.90;9.23;;;;;;;29.44;35.17;102717.28;4996980;28;20026;-62
2021/09/22 09:37:53;;;;;;;20.48;11.18;;;;;;;30.97;32.76;102728.19;4998404;28;20026;-62
2021/09/22 09:40:28;;;;;;;23.65;10.63;;;;;;;31.13;32.50;102727.72;5000420;28;20034;-62
2021/09/22 09:42:56;;;;;;;15.75;10.05;;;;;;;31.01;33.08;102719.25;4997211;28;20026;-62
2021/09/22 09:45:23;;;;;;;17.30;9.95;;;;;;;31.01;33.16;102713.72;4998689;28;20034;-62
2021/09/22 09:48:11;;;;;;;15.65;9.85;;;;;;;31.03;32.89;102710.72;4996980;28;20109;-62
2021/09/22 09:50:58;;;;;;;15.95;9.25;;;;;;;31.13;33.07;102728.56;4998817;28;20475;-62
2021/09/22 09:53:29;;;;;;;16.40;9.25;;;;;;;31.38;32.10;102714.81;5000088;28;20041;-62
2021/09/22 09:55:57;;;;;;;17.35;9.57;;;;;;;31.68;32.47;102721.50;4998091;28;20026;-62
2021/09/22 09:58:23;;;;;;;18.15;10.25;;;;;;;31.98;31.82;102710.63;4999420;28;20368;-62
2021/09/22 10:00:50;;;;;;;17.65;10.02;;;;;;;32.30;31.78;102702.28;4995997;28;20490;-61
2021/09/22 10:03:21;;;;;;;16.42;9.82;;;;;;;32.42;30.82;102695.75;4998059;28;20054;-60
2021/09/22 10:05:48;;;;;;;18.60;10.20;;;;;;;32.48;31.73;102694.84;4982270;28;20026;-61
2021/09/22 10:08:16;;;;;;;18.20;9.25;;;;;;;32.67;30.26;102699.34;4996479;28;20030;-61
2021/09/22 10:10:43;;;;;;;18.38;9.70;;;;;;;32.82;29.82;102693.44;4999382;28;20037;-60
2021/09/22 10:13:10;;;;;;;13.43;9.25;;;;;;;33.00;30.90;102692.59;4997660;28;20527;-61
2021/09/22 10:15:38;;;;;;;18.98;10.10;;;;;;;33.27;30.40;102693.97;4999356;28;20045;-60
2021/09/22 10:18:04;;;;;;;16.02;9.90;;;;;;;33.77;29.37;102684.25;4997225;28;20041;-60
2021/09/22 10:20:30;;;;;;;15.07;10.00;;;;;;;34.10;29.63;102691.22;4995891;28;20387;-61
2021/09/22 10:22:55;;;;;;;16.40;10.02;;;;;;;34.27;28.97;102679.16;4996273;28;20072;-60
2021/09/22 10:25:22;;;;;;;15.27;9.77;;;;;;;34.61;28.39;102680.25;4997220;28;20494;-61
2021/09/22 10:27:48;;;;;;;18.48;9.93;;;;;;;34.94;28.34;102680.44;4997258;28;20030;-60
2021/09/22 10:30:15;;;;;;;14.00;9.27;;;;;;;35.15;28.19;102675.31;4997162;28;20026;-61
2021/09/22 10:32:46;;;;;;;16.50;10.00;;;;;;;35.41;27.29;102680.28;4995614;28;20026;-60
2021/09/22 10:35:21;;;;;;;12.65;8.43;;;;;;;35.64;27.03;102677.41;4995734;28;20431;-60
2021/09/22 10:37:46;;;;;;;14.82;7.75;;;;;;;35.65;26.94;102679.94;4996089;28;20072;-60
2021/09/22 10:40:34;;;;;;;15.05;10.00;;;;;;;35.57;26.60;102673.91;4996823;28;20430;-60
2021/09/22 10:43:14;;;;;;;14.63;9.85;;;;;;;35.68;27.42;102674.97;4996463;28;20022;-61
2021/09/22 10:45:40;;;;;;;12.90;7.70;;;;;;;35.81;26.31;102667.13;4996713;28;20018;-61
2021/09/22 10:48:21;;;;;;;14.77;8.23;;;;;;;35.85;26.63;102664.69;4979396;28;20100;-60
2021/09/22 10:51:02;;;;;;;16.05;8.20;;;;;;;35.88;26.12;102652.97;4995397;28;20509;-60
2021/09/22 10:53:30;;;;;;;14.73;8.20;;;;;;;35.86;26.40;102649.59;4994888;28;20399;-60
2021/09/22 10:56:11;;;;;;;18.55;9.02;;;;;;;35.84;26.33;102652.66;4995730;28;20538;-61
2021/09/22 10:58:50;;;;;;;17.63;8.35;;;;;;;35.86;26.14;102650.47;4995724;28;20042;-61
2021/09/22 11:01:47;;;;;;;17.05;9.00;;;;;;;35.99;26.00;102644.53;4995413;28;20042;-61
2021/09/22 11:04:13;;;;;;;12.52;7.32;;;;;;;35.94;26.42;102636.09;4991638;28;20034;-61
2021/09/22 11:09:22;;;;;;;15.18;8.27;;;;;;;35.97;26.17;102629.13;4995590;28;20030;-61
2021/09/22 11:11:53;;;;;;;11.73;8.02;;;;;;;35.97;25.76;102624.41;4995445;28;20026;-60
2021/09/22 11:14:43;;;;;;;15.05;8.40;;;;;;;35.73;26.04;102628.50;4995634;28;20353;-61
2021/09/22 11:17:36;;;;;;;13.05;7.65;;;;;;;35.65;25.73;102621.34;4995354;28;20026;-60
2021/09/22 11:20:04;;;;;;;11.00;6.45;;;;;;;35.90;25.61;102618.19;4993120;28;20103;-60
2021/09/22 11:22:32;;;;;;;10.07;6.65;;;;;;;36.13;25.08;102628.31;4995448;28;20060;-61